Time;durP1;ratioP1;P1;durP2;ratioP2;P2;SDS_P1;SDS_P2;PMS_P1;PMS_P2;Temp;Humidity;BMP_temperature;BMP_pressure;BME280_temperature;BME280_humidity;BME280_pressure;Samples;Min_cycle;Max_cycle;Signal;HPM_P1;HPM_P2
2022/10/02 00:02:21;;;;;;;4.50;2.83;;;11.40;99.90;;;11.87;88.15;98080.34;5108311;27;20506;-79
2022/10/02 00:04:56;;;;;;;6.10;3.63;;;11.40;99.90;;;11.84;87.33;98049.13;5112869;27;20533;-78
2022/10/02 00:07:31;;;;;;;5.43;4.07;;;11.50;99.90;;;11.93;87.53;98079.44;5116430;27;20480;-78
2022/10/02 00:10:02;;;;;;;9.20;4.80;;;11.60;99.90;;;11.83;87.50;98058.31;5120385;27;20644;-79
2022/10/02 00:12:31;;;;;;;4.53;3.60;;;11.60;99.90;;;12.01;87.46;98081.03;5123593;27;20522;-78
2022/10/02 00:15:18;;;;;;;6.37;3.63;;;11.60;99.90;;;12.02;87.00;98080.00;5127676;27;20462;-77
2022/10/02 00:17:49;;;;;;;8.93;3.87;;;11.70;99.90;;;11.96;87.12;98070.06;5121722;27;20567;-80
2022/10/02 00:20:23;;;;;;;8.47;3.70;;;11.70;99.90;;;12.10;87.05;98095.16;5128907;27;20554;-79
2022/10/02 00:22:54;;;;;;;8.90;3.93;;;11.80;99.90;;;12.14;86.77;98099.09;5138275;27;20517;-80
2022/10/02 00:25:28;;;;;;;6.60;4.40;;;11.80;99.90;;;12.15;86.97;98098.84;5137105;27;20489;-77
2022/10/02 00:28:13;;;;;;;8.20;3.67;;;11.80;99.90;;;12.23;87.01;98099.63;5137605;27;20550;-77
2022/10/02 00:31:00;;;;;;;11.43;4.40;;;11.80;99.90;;;12.33;86.64;98110.75;5108057;27;20457;-77
2022/10/02 00:33:43;;;;;;;7.37;4.83;;;11.80;99.90;;;12.08;87.07;98081.00;5113507;27;20987;-77
2022/10/02 00:36:25;;;;;;;7.70;3.97;;;11.80;99.90;;;12.09;86.81;98091.63;5115236;27;20523;-83
2022/10/02 00:39:02;;;;;;;10.63;3.97;;;11.90;99.90;;;12.33;86.56;98110.75;5119798;27;20500;-79
2022/10/02 00:42:06;;;;;;;5.77;4.00;;;11.90;99.90;;;12.30;86.69;98100.38;5117900;27;21031;-79
2022/10/02 00:44:52;;;;;;;6.60;3.90;;;11.90;99.90;;;12.49;85.91;98100.38;5117740;27;20461;-76
2022/10/02 00:47:33;;;;;;;9.47;4.87;;;12.00;99.90;;;12.24;86.55;98091.25;5112941;27;20457;-75
2022/10/02 00:50:26;;;;;;;8.57;4.70;;;11.90;99.90;;;12.28;87.17;98103.31;5105406;27;20527;-75
2022/10/02 00:53:11;;;;;;;9.73;4.83;;;11.90;99.90;;;12.38;86.74;98112.78;5121729;27;20537;-77
2022/10/02 00:55:57;;;;;;;8.30;4.87;;;12.00;99.90;;;12.36;86.97;98109.47;5105138;27;20460;-77
2022/10/02 00:58:52;;;;;;;12.53;4.80;;;12.00;99.90;;;12.38;86.90;98107.38;5099132;27;20863;-78
2022/10/02 01:01:25;;;;;;;6.87;5.23;;;12.00;99.90;;;12.33;87.07;98099.91;5127022;27;20459;-79
2022/10/02 01:03:55;;;;;;;7.00;4.90;;;11.90;99.90;;;12.36;87.04;98110.31;5119488;27;20540;-77
2022/10/02 01:06:26;;;;;;;8.50;4.83;;;12.00;99.90;;;12.36;87.39;98109.47;5116330;27;20466;-80
2022/10/02 01:08:56;;;;;;;9.30;4.40;;;12.10;99.90;;;12.43;87.26;98088.53;5117499;27;20944;-80
2022/10/02 01:11:25;;;;;;;8.30;4.60;;;12.10;99.90;;;12.40;87.24;98100.69;5121360;27;20479;-78
2022/10/02 01:13:53;;;;;;;6.83;4.17;;;12.10;99.90;;;12.41;87.36;98087.94;5117454;27;20461;-77
2022/10/02 01:16:20;;;;;;;9.77;4.97;;;12.00;99.90;;;12.37;87.27;98087.59;5125763;27;20483;-77
2022/10/02 01:18:48;;;;;;;12.33;5.27;;;12.00;99.90;;;12.32;87.70;98100.97;5115958;27;20481;-77
2022/10/02 01:21:23;;;;;;;11.03;5.47;;;12.00;99.90;;;12.32;87.87;98098.25;5099974;27;20537;-79
2022/10/02 01:23:57;;;;;;;10.17;4.93;;;12.00;99.90;;;12.22;88.08;98104.19;5119286;27;20458;-79
2022/10/02 01:26:25;;;;;;;12.37;5.80;;;11.90;99.90;;;12.00;88.63;98106.47;5118347;27;20456;-77
2022/10/02 01:28:54;;;;;;;9.30;4.93;;;11.80;99.90;;;11.86;88.90;98090.34;5127806;27;20522;-78
2022/10/02 01:31:23;;;;;;;8.97;4.77;;;11.60;99.90;;;11.74;90.20;98092.09;5107499;27;20487;-80
2022/10/02 01:33:51;;;;;;;7.67;4.80;;;11.50;99.90;;;11.83;91.10;98114.31;5113342;27;20440;-77
2022/10/02 01:36:19;;;;;;;5.10;4.60;;;11.50;99.90;;;11.73;90.81;98080.47;5108729;28;20483;-76
2022/10/02 01:38:48;;;;;;;8.57;4.90;;;11.60;99.90;;;11.89;91.66;98111.53;5091646;28;20485;-77
2022/10/02 01:41:16;;;;;;;10.57;4.83;;;11.60;99.90;;;12.01;91.44;98110.81;5098793;27;20456;-76
2022/10/02 01:43:47;;;;;;;14.83;4.53;;;11.60;99.90;;;12.04;91.10;98113.94;5105660;27;20443;-77
2022/10/02 01:46:30;;;;;;;12.77;4.97;;;11.70;99.90;;;12.21;90.14;98124.22;5097655;27;20471;-77
2022/10/02 01:49:15;;;;;;;11.27;5.30;;;11.80;99.90;;;12.21;89.67;98115.25;5095594;28;20507;-78
2022/10/02 01:52:00;;;;;;;9.23;5.30;;;11.80;99.90;;;12.01;90.20;98118.94;5116580;27;20544;-78
2022/10/02 01:54:40;;;;;;;7.60;4.70;;;11.80;99.90;;;12.12;90.33;98120.97;5116034;27;20464;-78
2022/10/02 01:57:24;;;;;;;10.73;5.10;;;11.80;99.90;;;12.27;90.46;98128.72;5103146;28;20814;-76
2022/10/02 02:00:06;;;;;;;10.47;4.53;;;11.90;99.90;;;12.33;90.10;98127.00;5119394;28;20478;-77
2022/10/02 02:02:53;;;;;;;6.17;4.33;;;11.90;99.90;;;12.37;89.78;98114.69;5120066;28;20497;-78
2022/10/02 02:05:47;;;;;;;8.03;4.70;;;11.90;99.90;;;12.45;89.12;98108.94;5121003;28;20492;-78
2022/10/02 02:08:27;;;;;;;6.63;4.80;;;11.90;99.90;;;12.36;88.89;98094.06;5114338;28;20509;-77
2022/10/02 02:11:08;;;;;;;11.00;5.10;;;12.00;99.90;;;12.58;88.63;98113.38;5103015;28;20934;-78
2022/10/02 02:13:45;;;;;;;6.80;4.77;;;12.00;99.90;;;12.43;89.13;98118.34;5126509;27;20462;-77
2022/10/02 02:16:25;;;;;;;9.13;4.50;;;12.00;99.90;;;12.23;90.18;98111.25;5091658;28;20460;-78
2022/10/02 02:19:04;;;;;;;10.43;5.43;;;11.90;99.90;;;12.20;89.67;98084.63;5125048;28;20979;-77
2022/10/02 02:21:40;;;;;;;9.17;4.50;;;12.00;99.90;;;12.50;89.43;98121.00;5102453;28;21284;-76
2022/10/02 02:24:13;;;;;;;8.83;4.97;;;12.00;99.90;;;12.46;89.58;98126.88;5109223;28;20511;-76
2022/10/02 02:26:42;;;;;;;7.53;4.83;;;12.00;99.90;;;12.47;89.58;98117.69;5111552;28;20540;-78
2022/10/02 02:29:11;;;;;;;10.13;5.90;;;12.00;99.90;;;12.43;89.80;98126.47;5108183;28;20547;-76
2022/10/02 02:31:44;;;;;;;12.03;5.23;;;12.00;99.90;;;12.49;89.32;98114.75;5117348;28;20517;-76
2022/10/02 02:34:14;;;;;;;13.07;5.30;;;12.00;99.90;;;12.52;88.92;98118.91;5104148;28;20476;-75
2022/10/02 02:36:46;;;;;;;8.60;4.73;;;12.00;99.90;;;12.59;88.78;98135.91;5097175;28;20486;-77
2022/10/02 02:39:18;;;;;;;10.73;5.73;;;12.00;99.90;;;12.59;88.78;98130.47;5100836;28;21069;-80
2022/10/02 02:41:51;;;;;;;12.50;5.17;;;12.10;99.90;;;12.40;89.13;98114.22;5116842;28;20835;-77
2022/10/02 02:44:24;;;;;;;8.30;5.10;;;12.10;99.90;;;12.70;88.18;98142.44;5101083;28;21024;-76
2022/10/02 02:47:06;;;;;;;8.40;5.00;;;12.20;99.90;;;12.68;88.08;98131.84;5121373;28;20455;-76
2022/10/02 02:49:45;;;;;;;14.30;5.20;;;12.10;99.90;;;12.67;88.21;98138.34;5114525;28;20923;-80
2022/10/02 02:52:18;;;;;;;8.87;4.90;;;12.10;99.90;;;12.60;88.79;98142.97;5096407;28;20456;-77
2022/10/02 02:54:52;;;;;;;14.10;5.80;;;12.10;99.90;;;12.81;87.90;98135.44;5117720;28;20481;-77
2022/10/02 02:57:28;;;;;;;11.40;4.80;;;12.10;99.90;;;12.73;87.66;98137.41;5121392;28;20512;-75
2022/10/02 02:59:57;;;;;;;8.13;4.90;;;12.20;99.90;;;12.78;87.50;98138.59;5114310;28;20499;-76
2022/10/02 03:02:26;;;;;;;10.50;5.00;;;12.20;99.90;;;12.72;87.62;98127.63;5092351;28;20532;-76
2022/10/02 03:04:54;;;;;;;10.07;5.00;;;12.20;99.90;;;12.52;88.16;98097.22;5119552;28;20575;-77
2022/10/02 03:07:21;;;;;;;8.20;4.77;;;12.20;99.90;;;12.71;88.05;98133.25;5112363;28;20469;-75
2022/10/02 03:10:01;;;;;;;12.37;4.93;;;12.10;99.90;;;12.69;88.26;98136.22;5126312;28;20488;-76
2022/10/02 03:12:43;;;;;;;14.57;5.33;;;12.20;99.90;;;12.61;88.58;98144.63;5121845;28;20447;-76
2022/10/02 03:15:25;;;;;;;9.07;4.37;;;12.10;99.90;;;12.58;88.87;98134.25;5123299;27;20473;-78
2022/10/02 03:18:21;;;;;;;10.23;4.93;;;12.10;99.90;;;12.63;88.82;98130.88;5111284;27;20478;-75
2022/10/02 03:21:00;;;;;;;8.50;4.80;;;12.10;99.90;;;12.51;89.28;98138.91;5127202;27;20451;-77
2022/10/02 03:23:34;;;;;;;12.40;6.10;;;12.00;99.90;;;12.56;89.42;98147.22;5110023;27;20451;-76
2022/10/02 03:26:08;;;;;;;8.57;4.77;;;12.00;99.90;;;12.59;88.71;98135.91;5133074;27;20550;-77
2022/10/02 03:28:40;;;;;;;6.00;4.77;;;12.10;99.90;;;12.55;89.05;98129.28;5113459;27;21117;-77
2022/10/02 03:31:09;;;;;;;10.13;4.87;;;12.10;99.90;;;12.57;88.94;98129.88;5131026;27;20452;-76
2022/10/02 03:33:39;;;;;;;6.73;4.17;;;12.00;99.90;;;12.46;89.06;98129.56;5123673;27;20441;-79
2022/10/02 03:36:07;;;;;;;10.20;5.50;;;12.00;99.90;;;12.45;89.99;98154.19;5129805;27;20557;-79
2022/10/02 03:38:35;;;;;;;8.20;4.90;;;12.00;99.90;;;12.48;89.38;98140.19;5125210;27;20477;-75
2022/10/02 03:41:02;;;;;;;9.43;5.30;;;12.00;99.90;;;12.38;90.04;98116.34;5105999;28;20831;-77
2022/10/02 03:43:31;;;;;;;9.77;5.10;;;12.00;99.90;;;12.32;90.53;98130.75;5114409;27;20465;-77
2022/10/02 03:45:58;;;;;;;8.33;5.07;;;12.00;99.90;;;12.22;91.07;98115.03;5121737;27;20489;-76
2022/10/02 03:48:25;;;;;;;11.00;4.70;;;12.00;99.90;;;12.40;90.23;98126.94;5111230;27;20455;-75
2022/10/02 03:50:54;;;;;;;10.07;4.67;;;12.00;99.90;;;12.43;89.94;98135.44;5118791;27;20453;-76
2022/10/02 03:53:25;;;;;;;9.07;4.47;;;12.00;99.90;;;12.47;89.46;98143.97;5118936;27;20467;-78
2022/10/02 03:55:59;;;;;;;6.50;4.30;;;12.10;99.90;;;12.52;89.76;98151.44;5095593;27;20460;-78
2022/10/02 03:58:26;;;;;;;8.53;4.40;;;12.10;99.90;;;12.45;89.28;98152.31;5115324;27;20510;-76
2022/10/02 04:01:01;;;;;;;10.33;4.33;;;12.10;99.90;;;12.57;89.40;98138.03;5121526;27;20527;-78
2022/10/02 04:03:33;;;;;;;4.13;3.63;;;12.10;99.90;;;12.59;89.14;98142.16;5105025;27;20458;-78
2022/10/02 04:06:06;;;;;;;8.10;3.67;;;12.20;99.90;;;12.51;89.06;98138.91;5120833;27;21210;-77
2022/10/02 04:08:40;;;;;;;7.67;4.00;;;12.20;99.90;;;12.59;88.79;98135.91;5119377;27;20944;-80
2022/10/02 04:11:16;;;;;;;7.83;3.80;;;12.20;99.90;;;12.58;88.58;98128.84;5111108;27;20450;-77
2022/10/02 04:13:48;;;;;;;7.50;3.80;;;12.30;99.90;;;12.56;88.44;98141.78;5104080;27;20971;-78
2022/10/02 04:16:23;;;;;;;7.20;3.27;;;12.20;99.90;;;12.51;88.98;98133.47;5115628;27;20448;-76
2022/10/02 04:18:56;;;;;;;4.77;3.40;;;12.20;99.90;;;12.53;88.85;98136.81;5107776;27;20465;-76
2022/10/02 04:21:37;;;;;;;7.13;3.43;;;12.20;99.90;;;12.63;88.20;98118.13;5100181;28;20526;-78
2022/10/02 04:24:14;;;;;;;4.60;2.90;;;12.20;99.90;;;12.59;88.52;98123.19;5121968;27;20494;-78
2022/10/02 04:26:47;;;;;;;6.03;3.27;;;12.10;99.90;;;12.37;89.77;98119.25;5102919;27;20448;-77
2022/10/02 04:29:20;;;;;;;6.90;3.70;;;12.20;99.90;;;12.44;88.87;98128.97;5120142;27;20501;-80
2022/10/02 04:31:54;;;;;;;9.73;4.40;;;12.20;99.90;;;12.48;89.23;98137.50;5103361;27;20956;-80
2022/10/02 04:34:21;;;;;;;4.50;2.70;;;12.10;99.90;;;12.50;88.59;98126.41;5107254;27;20979;-77
2022/10/02 04:37:11;;;;;;;4.40;3.37;;;12.20;99.90;;;12.50;88.72;98131.81;5101122;28;20508;-78
2022/10/02 04:39:59;;;;;;;5.07;3.23;;;12.20;99.90;;;12.57;88.27;98138.03;5111418;27;20476;-79
2022/10/02 04:42:45;;;;;;;7.40;3.47;;;12.20;99.90;;;12.44;88.33;98139.00;5122333;27;21438;-78
2022/10/02 04:45:32;;;;;;;7.53;3.17;;;12.10;99.90;;;12.60;87.87;98137.56;5095058;27;21291;-78
2022/10/02 04:48:33;;;;;;;5.17;3.70;;;12.20;99.90;;;12.56;87.78;98148.03;5123646;27;20963;-76
2022/10/02 04:51:20;;;;;;;7.40;2.90;;;12.20;99.90;;;12.60;87.88;98151.13;5127131;27;20552;-76
2022/10/02 04:54:12;;;;;;;8.00;3.10;;;12.30;99.90;;;12.67;86.97;98135.63;5098741;27;20498;-76
2022/10/02 04:56:58;;;;;;;5.37;2.70;;;12.30;99.90;;;12.57;87.83;98146.16;5114335;27;20535;-76
2022/10/02 04:59:42;;;;;;;8.63;3.10;;;12.30;99.90;;;12.60;87.50;98154.66;5126270;27;20476;-77
2022/10/02 05:02:30;;;;;;;3.03;2.77;;;12.30;99.90;;;12.72;86.65;98151.19;5118863;27;20457;-78
2022/10/02 05:05:26;;;;;;;3.50;2.53;;;12.40;99.90;;;12.67;87.04;98156.47;5096944;27;20521;-76
2022/10/02 05:08:24;;;;;;;6.40;2.47;;;12.30;99.90;;;12.72;86.97;98159.31;5116754;27;20545;-76
2022/10/02 05:11:19;;;;;;;8.50;3.40;;;12.30;99.90;;;12.61;86.95;98159.03;5092078;28;20557;-76
2022/10/02 05:14:21;;;;;;;14.57;4.33;;;12.30;99.90;;;12.68;86.94;98160.81;5105958;27;20801;-77
2022/10/02 05:17:06;;;;;;;13.43;3.17;;;12.30;99.90;;;12.61;87.05;98152.78;5116713;27;20462;-75
2022/10/02 05:19:52;;;;;;;6.43;3.03;;;12.30;99.90;;;12.70;86.97;98151.44;5117531;27;20474;-79
2022/10/02 05:23:04;;;;;;;8.40;3.70;;;12.30;99.90;;;12.66;87.22;98158.34;5104286;27;20468;-78
2022/10/02 05:26:10;;;;;;;6.67;3.80;;;12.30;99.90;;;12.77;86.60;98159.47;5054764;28;20566;-80
2022/10/02 05:29:07;;;;;;;5.13;3.00;;;12.40;99.90;;;12.45;86.59;98108.13;5056795;28;20521;-76
2022/10/02 05:31:52;;;;;;;6.93;2.73;;;12.30;99.90;;;12.76;86.45;98165.97;5115916;27;20453;-77
2022/10/02 05:34:42;;;;;;;6.30;3.23;;;12.40;99.90;;;12.78;86.11;98152.16;5103392;27;20451;-78
2022/10/02 05:37:41;;;;;;;8.73;3.40;;;12.40;99.90;;;12.83;86.30;98160.47;5115012;27;20530;-78
2022/10/02 05:40:18;;;;;;;4.70;2.87;;;12.40;99.90;;;12.84;86.00;98164.84;5110439;27;20563;-80
2022/10/02 05:42:56;;;;;;;4.73;2.90;;;12.40;99.90;;;12.88;86.00;98160.59;5111321;27;20448;-79
2022/10/02 05:45:29;;;;;;;5.90;3.50;;;12.40;99.90;;;12.56;86.96;98137.19;5120580;27;20508;-80
2022/10/02 05:48:13;;;;;;;9.17;3.50;;;12.50;99.90;;;12.66;86.85;98161.06;5121912;27;20777;-80
2022/10/02 05:50:41;;;;;;;8.50;4.67;;;12.50;99.90;;;12.82;86.37;98162.34;5118784;27;20476;-82
2022/10/02 05:53:21;;;;;;;11.70;3.87;;;12.50;99.90;;;12.87;85.95;98151.63;5119541;27;20545;-81
2022/10/02 05:55:52;;;;;;;8.17;3.53;;;12.60;99.90;;;13.00;85.37;98158.78;5125572;27;20456;-80
2022/10/02 05:58:27;;;;;;;6.37;3.07;;;12.60;99.90;;;13.01;85.21;98141.47;5130590;27;20547;-79
2022/10/02 06:01:02;;;;;;;7.57;3.47;;;12.70;99.90;;;13.14;84.96;98158.63;5128203;28;20956;-79
2022/10/02 06:03:39;;;;;;;10.70;4.30;;;12.80;99.90;;;13.08;85.06;98148.66;5118556;28;20461;-78
2022/10/02 06:06:15;;;;;;;4.23;3.20;;;12.70;99.90;;;12.97;85.17;98161.97;5110478;28;20474;-77
2022/10/02 06:08:47;;;;;;;3.23;2.77;;;12.70;99.90;;;12.97;85.58;98153.81;5094343;28;20452;-79
2022/10/02 06:11:20;;;;;;;6.73;2.77;;;12.70;99.90;;;12.66;85.32;98125.84;5118622;28;20452;-77
2022/10/02 06:13:52;;;;;;;9.40;3.73;;;12.70;99.90;;;12.82;85.80;98154.19;5121511;28;20809;-88
2022/10/02 06:16:29;;;;;;;5.70;3.00;;;12.70;99.90;;;12.74;86.28;98128.22;5100797;28;20453;-80
2022/10/02 06:19:04;;;;;;;5.43;3.13;;;12.60;99.90;;;12.91;85.33;98122.19;5094273;28;20446;-77
2022/10/02 06:21:38;;;;;;;11.40;3.23;;;12.70;99.90;;;13.24;84.57;98153.47;5089280;28;20442;-77
2022/10/02 06:24:13;;;;;;;6.97;3.20;;;12.80;99.90;;;12.75;83.71;98064.81;5115506;28;20535;-81
2022/10/02 06:26:47;;;;;;;7.90;3.93;;;12.80;99.20;;;13.19;83.99;98139.75;5122483;28;20456;-81
2022/10/02 06:29:24;;;;;;;7.30;3.47;;;12.90;98.60;;;13.27;83.79;98141.34;5092257;28;20500;-76
2022/10/02 06:31:58;;;;;;;6.37;3.23;;;12.90;98.50;;;12.99;83.55;98097.47;5113158;28;20484;-77
2022/10/02 06:34:26;;;;;;;10.33;3.87;;;12.90;98.90;;;13.21;84.30;98159.34;5116843;28;20459;-80
2022/10/02 06:37:11;;;;;;;9.90;3.40;;;12.90;98.40;;;13.29;84.48;98166.34;5097798;28;20967;-78
2022/10/02 06:39:57;;;;;;;9.47;3.33;;;12.80;99.70;;;13.49;82.95;98159.84;5102286;28;20832;-80
2022/10/02 06:42:41;;;;;;;8.40;3.43;;;13.00;98.20;;;13.49;82.97;98149.81;5101540;28;20475;-84
2022/10/02 06:45:22;;;;;;;8.47;3.47;;;13.10;98.50;;;13.60;82.32;98150.91;5116743;28;20833;-78
2022/10/02 06:48:05;;;;;;;5.77;3.53;;;13.10;97.10;;;13.56;82.63;98155.16;5098580;28;20600;-80
2022/10/02 06:50:48;;;;;;;5.30;3.30;;;13.20;96.80;;;13.59;82.12;98152.81;5115808;27;20816;-81
2022/10/02 06:53:31;;;;;;;8.77;3.77;;;13.20;96.60;;;13.50;82.65;98129.75;5115943;27;20511;-82
2022/10/02 06:56:14;;;;;;;6.10;5.10;;;13.20;96.40;;;13.51;82.65;98150.41;5097744;28;20464;-81
2022/10/02 06:58:57;;;;;;;6.17;4.00;;;13.20;96.90;;;13.68;82.69;98152.47;5099533;27;20439;-81
2022/10/02 07:01:38;;;;;;;4.70;3.10;;;13.20;96.90;;;13.47;81.77;98097.66;5116430;27;20520;-78
2022/10/02 07:04:29;;;;;;;9.63;4.30;;;13.30;97.20;;;13.73;82.18;98155.31;5110264;27;20536;-83
2022/10/02 07:07:16;;;;;;;7.67;3.77;;;13.30;96.60;;;13.51;82.15;98139.56;5118925;27;20538;-79
2022/10/02 07:10:07;;;;;;;8.50;4.10;;;13.30;96.10;;;13.83;81.78;98163.72;5102191;27;20453;-82
2022/10/02 07:13:07;;;;;;;6.43;3.50;;;13.40;96.20;;;13.85;81.54;98164.28;5112927;27;20476;-80
2022/10/02 07:16:14;;;;;;;6.97;3.00;;;13.40;96.20;;;13.88;81.83;98169.28;5102968;27;20443;-81
2022/10/02 07:19:11;;;;;;;9.83;3.10;;;13.40;96.50;;;13.92;81.43;98157.94;5100739;27;20517;-80
2022/10/02 07:21:47;;;;;;;6.53;3.77;;;13.50;95.90;;;13.86;81.05;98143.41;5095031;27;21057;-83
2022/10/02 07:24:44;;;;;;;6.70;3.10;;;13.50;95.90;;;13.88;81.37;98158.44;5117800;27;20540;-80
2022/10/02 07:27:19;;;;;;;5.60;3.03;;;13.50;95.00;;;13.90;81.10;98170.94;5112700;27;20458;-75
2022/10/02 07:29:56;;;;;;;7.70;3.93;;;13.60;94.90;;;13.95;81.06;98173.78;5114196;27;20455;-75
2022/10/02 07:32:48;;;;;;;4.07;3.00;;;13.60;95.20;;;14.00;81.00;98171.16;5115736;27;20451;-74
2022/10/02 07:35:34;;;;;;;4.30;2.50;;;13.60;95.50;;;14.03;80.65;98173.44;5099851;27;20529;-72
2022/10/02 07:38:23;;;;;;;7.70;3.67;;;13.60;95.10;;;14.15;80.36;98173.44;5097986;27;20536;-72
2022/10/02 07:41:01;;;;;;;3.30;2.37;;;13.70;95.10;;;13.89;81.20;98186.38;5097592;27;21213;-76
2022/10/02 07:43:46;;;;;;;5.33;2.73;;;13.60;94.50;;;13.88;81.10;98184.75;5100271;27;20553;-73
2022/10/02 07:46:19;;;;;;;7.17;2.67;;;13.70;94.60;;;13.97;80.87;98188.78;5115992;27;20456;-82
2022/10/02 07:49:06;;;;;;;9.20;2.80;;;13.60;94.80;;;14.22;80.16;98178.78;5119533;27;20456;-82
2022/10/02 07:51:48;;;;;;;7.00;2.70;;;13.70;95.20;;;14.06;80.64;98183.84;5105814;27;20465;-75
2022/10/02 07:54:59;;;;;;;3.10;2.50;;;13.80;94.30;;;13.85;81.16;98180.59;5119181;27;20556;-76
2022/10/02 07:57:39;;;;;;;3.50;3.00;;;13.60;95.10;;;14.02;81.57;98182.63;5118156;27;20465;-73
2022/10/02 08:00:13;;;;;;;4.93;2.17;;;13.60;95.90;;;14.05;80.94;98184.91;5113984;27;20567;-72
2022/10/02 08:02:50;;;;;;;6.60;2.67;;;13.70;95.00;;;14.07;80.76;98182.78;5108357;27;20510;-73
2022/10/02 08:05:22;;;;;;;4.43;2.60;;;13.70;95.10;;;14.15;80.32;98176.16;5102867;27;20547;-75
2022/10/02 08:07:56;;;;;;;8.93;4.23;;;13.80;94.90;;;14.19;80.49;98184.69;5116624;27;20491;-73
2022/10/02 08:10:37;;;;;;;5.87;3.33;;;13.80;94.80;;;14.11;80.41;98186.66;5121260;27;21192;-75
2022/10/02 08:13:14;;;;;;;6.20;3.50;;;13.80;94.00;;;14.09;80.14;98179.81;5108055;27;20520;-76
2022/10/02 08:15:44;;;;;;;3.37;2.40;;;13.80;94.40;;;14.16;80.59;98188.69;5102965;27;20464;-72
2022/10/02 08:18:18;;;;;;;6.03;2.90;;;13.80;94.70;;;14.12;81.16;98190.22;5114326;27;20956;-78
2022/10/02 08:20:48;;;;;;;5.07;2.50;;;13.80;94.70;;;14.04;80.51;98188.69;5105636;27;20494;-73
2022/10/02 08:23:25;;;;;;;5.43;2.87;;;13.80;94.30;;;14.24;80.41;98176.66;5112212;27;20455;-77
2022/10/02 08:26:01;;;;;;;6.13;2.60;;;13.80;94.40;;;14.33;79.97;98196.97;5093967;27;20957;-78
2022/10/02 08:28:37;;;;;;;5.20;2.50;;;13.90;94.50;;;14.28;79.85;98184.09;5120002;27;20454;-76
2022/10/02 08:31:13;;;;;;;4.77;2.63;;;13.90;94.10;;;14.30;80.09;98192.00;5112095;27;20451;-76
2022/10/02 08:33:42;;;;;;;4.43;2.33;;;14.00;94.10;;;13.99;81.09;98186.66;5119511;27;20485;-77
2022/10/02 08:36:42;;;;;;;6.23;2.50;;;13.90;94.10;;;13.83;82.28;98192.75;5124639;27;20457;-77
2022/10/02 08:39:31;;;;;;;4.93;2.70;;;13.70;94.70;;;13.97;82.66;98185.22;5115744;27;20446;-77
2022/10/02 08:42:53;;;;;;;4.67;3.03;;;13.70;96.10;;;13.99;82.24;98183.09;5102707;28;20568;-75
2022/10/02 08:46:07;;;;;;;7.67;3.10;;;13.70;95.50;;;13.97;82.42;98177.06;5099421;27;20468;-74
2022/10/02 08:49:28;;;;;;;6.97;2.90;;;13.70;96.40;;;14.14;81.80;98161.75;5090205;28;21071;-73
2022/10/02 08:52:49;;;;;;;7.83;3.47;;;13.80;96.40;;;14.16;81.29;98164.22;5111096;27;20457;-76
2022/10/02 08:55:54;;;;;;;4.13;2.93;;;13.80;95.50;;;13.92;83.16;98166.09;5118689;27;20461;-74
2022/10/02 08:59:20;;;;;;;6.80;3.60;;;13.70;96.20;;;13.98;83.25;98170.59;5108493;28;20454;-83
2022/10/02 09:02:20;;;;;;;6.17;3.50;;;13.60;96.90;;;13.86;82.80;98165.94;5098688;27;20873;-74
2022/10/02 09:05:57;;;;;;;7.23;3.07;;;13.60;96.40;;;14.14;82.57;98166.38;5109194;27;20823;-81
2022/10/02 09:09:34;;;;;;;7.30;3.80;;;13.70;96.90;;;13.53;82.67;98102.16;5097997;27;20444;-75
2022/10/02 09:12:57;;;;;;;6.20;2.87;;;13.70;96.00;;;13.75;84.03;98161.34;5064684;28;20449;-74
2022/10/02 09:15:43;;;;;;;7.03;3.27;;;13.60;96.30;;;13.98;83.17;98163.28;5087295;27;20458;-77
2022/10/02 09:18:18;;;;;;;4.60;2.83;;;13.70;97.10;;;13.91;83.70;98162.53;5095078;27;20579;-72
2022/10/02 09:21:19;;;;;;;9.20;2.90;;;13.70;97.00;;;13.91;83.13;98150.88;5096524;27;20476;-75
2022/10/02 09:24:45;;;;;;;6.13;2.80;;;13.60;97.00;;;13.72;83.50;98159.06;5114477;27;20537;-83
2022/10/02 09:27:54;;;;;;;4.90;2.57;;;13.60;97.00;;;13.64;84.11;98162.94;5128134;27;20436;-76
2022/10/02 09:30:50;;;;;;;6.20;3.23;;;13.40;98.00;;;13.60;84.50;98157.19;5117229;27;20466;-73
2022/10/02 09:34:14;;;;;;;7.53;3.77;;;13.40;98.60;;;13.95;84.53;98154.75;5110482;27;20477;-74
2022/10/02 09:37:16;;;;;;;5.40;3.60;;;13.40;99.80;;;14.06;83.52;98159.38;5114520;27;20456;-75
2022/10/02 09:40:30;;;;;;;3.87;3.13;;;13.60;99.60;;;14.06;82.27;98162.09;5106560;27;20463;-73
2022/10/02 09:43:54;;;;;;;5.50;3.40;;;13.70;97.90;;;14.09;83.04;98163.50;5114175;27;20490;-86
2022/10/02 09:47:28;;;;;;;6.17;3.40;;;13.70;97.40;;;14.22;82.24;98166.00;5110011;27;20472;-81
2022/10/02 09:50:50;;;;;;;6.87;4.30;;;13.80;97.30;;;14.16;82.65;98158.81;5098952;27;20516;-79
2022/10/02 09:54:14;;;;;;;6.87;4.30;;;13.80;97.40;;;14.11;82.54;98162.22;5092393;27;20819;-77
2022/10/02 09:57:34;;;;;;;6.37;3.50;;;13.80;96.50;;;14.32;82.93;98173.56;5096565;27;20468;-79
2022/10/02 10:00:25;;;;;;;6.13;3.60;;;13.80;97.70;;;13.81;84.18;98163.13;5088554;27;20990;-73
2022/10/02 10:03:49;;;;;;;7.10;3.83;;;13.80;97.00;;;13.96;84.06;98159.13;5112637;28;20463;-74
2022/10/02 10:06:44;;;;;;;4.40;3.20;;;13.60;98.40;;;14.17;83.24;98155.03;5102149;28;20449;-77
2022/10/02 10:09:49;;;;;;;5.23;3.53;;;13.70;98.10;;;14.20;82.94;98164.59;5094415;28;20496;-74
2022/10/02 10:12:56;;;;;;;5.57;3.90;;;13.80;97.10;;;13.99;83.83;98164.09;5113008;28;21035;-77
2022/10/02 10:16:29;;;;;;;4.30;3.30;;;13.80;97.20;;;14.17;83.12;98160.44;5115953;28;20491;-81
2022/10/02 10:19:53;;;;;;;6.30;3.30;;;13.80;97.20;;;14.28;82.73;98156.06;5110971;28;20518;-72
2022/10/02 10:23:15;;;;;;;7.47;4.63;;;13.90;97.00;;;14.26;83.20;98136.47;5108126;28;20989;-72
2022/10/02 10:26:40;;;;;;;9.40;4.40;;;14.00;97.00;;;14.32;82.60;98140.94;5086125;27;20472;-79
2022/10/02 10:30:04;;;;;;;5.97;4.17;;;14.00;97.40;;;14.01;82.30;98091.34;5110579;27;20454;-73
2022/10/02 10:33:26;;;;;;;5.63;3.87;;;14.10;96.50;;;14.02;84.51;98141.88;5120259;27;20456;-73
2022/10/02 10:40:05;;;;;;;6.33;3.30;;;13.80;98.20;;;14.01;84.97;98130.19;5115109;27;21072;-77
2022/10/02 10:43:15;;;;;;;8.67;3.20;;;13.80;99.50;;;14.09;85.21;98126.31;5126219;27;20503;-74
2022/10/02 10:46:10;;;;;;;5.73;3.50;;;13.80;99.60;;;14.49;82.71;98134.81;5118545;27;20509;-73
2022/10/02 10:49:22;;;;;;;5.87;4.23;;;13.90;98.50;;;14.28;83.59;98134.34;5102431;27;20542;-74
2022/10/02 10:52:02;;;;;;;7.97;3.80;;;13.90;98.50;;;14.28;82.86;98137.91;5096185;27;20865;-77
2022/10/02 10:54:57;;;;;;;4.73;3.67;;;13.90;97.80;;;14.07;83.99;98122.16;5100724;27;20457;-74
2022/10/02 10:58:01;;;;;;;6.23;3.93;;;13.80;98.60;;;14.02;85.50;98131.00;5118301;27;20934;-79
2022/10/02 11:00:42;;;;;;;4.97;3.77;;;13.70;99.90;;;14.16;83.94;98140.59;5101124;28;20533;-75
2022/10/02 11:03:58;;;;;;;9.70;5.37;;;13.80;98.20;;;14.28;84.00;98134.34;5101205;27;20984;-73
2022/10/02 11:07:22;;;;;;;6.40;4.23;;;13.90;99.10;;;14.35;84.06;98134.22;5112127;27;21299;-73
2022/10/02 11:10:18;;;;;;;4.77;3.30;;;14.00;98.80;;;14.29;84.82;98146.84;5082227;27;20453;-77
2022/10/02 11:13:29;;;;;;;4.97;3.97;;;13.90;99.80;;;14.42;83.50;98146.63;5096939;27;20461;-77
2022/10/02 11:16:35;;;;;;;9.00;4.40;;;14.00;99.10;;;14.20;85.89;98132.81;5105149;27;20486;-82
2022/10/02 11:19:35;;;;;;;8.10;4.23;;;13.90;99.90;;;14.35;84.58;98135.06;5104010;27;20502;-77
2022/10/02 11:22:42;;;;;;;4.07;3.50;;;13.90;99.90;;;13.94;86.38;98134.09;5119676;27;20476;-82
2022/10/02 11:25:33;;;;;;;7.20;4.10;;;13.80;99.80;;;14.21;86.37;98122.78;5103767;27;20517;-81
2022/10/02 11:28:50;;;;;;;4.83;3.97;;;13.80;99.90;;;13.97;86.78;98111.88;5103408;27;20460;-84
2022/10/02 11:31:33;;;;;;;5.63;4.37;;;13.70;99.90;;;14.35;84.72;98107.88;5120975;27;20455;-81
2022/10/02 11:34:42;;;;;;;5.27;3.80;;;13.90;99.90;;;14.43;84.29;98125.72;5101443;27;20622;-76
2022/10/02 11:37:55;;;;;;;4.70;4.13;;;14.00;99.50;;;14.26;83.92;98128.31;5116653;27;20462;-77
2022/10/02 11:41:12;;;;;;;5.43;3.80;;;14.00;97.70;;;14.34;84.54;98138.00;5115298;27;20522;-77